createdAt,value
2017-10-19T00:00:59.467Z,16.57
2017-10-19T00:03:27.937Z,15.30
2017-10-19T00:05:56.426Z,16.77
2017-10-19T00:08:24.727Z,18.80
2017-10-19T00:10:53.219Z,13.23
2017-10-19T00:13:21.888Z,13.70
2017-10-19T00:15:50.375Z,16.70
2017-10-19T00:18:18.843Z,15.53
2017-10-19T00:20:47.319Z,16.30
2017-10-19T00:23:15.787Z,15.77
2017-10-19T00:25:44.275Z,16.20
2017-10-19T00:28:12.847Z,16.50
2017-10-19T00:30:41.332Z,17.70
2017-10-19T00:33:09.820Z,19.43
2017-10-19T00:35:38.371Z,13.20
2017-10-19T00:38:07.599Z,13.90
2017-10-19T00:40:36.299Z,15.60
2017-10-19T00:43:04.426Z,20.00
2017-10-19T00:45:33.681Z,16.33
2017-10-19T00:48:02.011Z,15.47
2017-10-19T00:50:31.289Z,16.87
2017-10-19T00:53:00.217Z,15.70
2017-10-19T00:55:28.756Z,15.03
2017-10-19T00:57:57.423Z,20.60
2017-10-19T01:00:25.879Z,14.57
2017-10-19T01:02:54.364Z,17.27
2017-10-19T01:05:23.232Z,18.80
2017-10-19T01:07:52.491Z,18.07
2017-10-19T01:10:20.957Z,16.00
2017-10-19T01:12:49.433Z,20.63
2017-10-19T01:15:17.907Z,20.60
2017-10-19T01:17:46.374Z,23.20
2017-10-19T01:20:15.283Z,18.80
2017-10-19T01:22:43.750Z,19.43
2017-10-19T01:25:12.291Z,20.77
2017-10-19T01:27:40.403Z,20.57
2017-10-19T01:30:09.304Z,19.43
2017-10-19T01:32:38.523Z,14.30
2017-10-19T01:35:06.981Z,18.70
2017-10-19T01:37:36.219Z,20.60
2017-10-19T01:40:05.144Z,18.17
2017-10-19T01:42:34.068Z,16.27
2017-10-19T01:45:02.970Z,19.80
2017-10-19T01:47:31.159Z,18.17
2017-10-19T01:50:00.727Z,17.60
2017-10-19T01:52:28.512Z,17.50
2017-10-19T01:54:56.971Z,19.27
2017-10-19T01:57:25.495Z,17.40
2017-10-19T01:59:53.976Z,21.33
2017-10-19T02:02:22.460Z,15.23
2017-10-19T02:04:50.935Z,17.57
2017-10-19T02:07:19.417Z,17.80
2017-10-19T02:09:47.971Z,17.87
2017-10-19T02:12:17.352Z,18.50
2017-10-19T02:14:45.803Z,20.07
2017-10-19T02:17:14.295Z,17.80
2017-10-19T02:19:42.771Z,19.43
2017-10-19T02:22:10.889Z,16.17
2017-10-19T02:24:39.772Z,18.60
2017-10-19T02:27:08.236Z,16.93
2017-10-19T02:29:36.718Z,23.27
2017-10-19T02:32:06.094Z,17.07
2017-10-19T02:34:34.579Z,18.70
2017-10-19T02:37:03.041Z,18.83
2017-10-19T02:39:32.283Z,18.37
2017-10-19T02:42:00.756Z,18.03
2017-10-19T02:44:29.286Z,18.30
2017-10-19T02:46:57.756Z,17.07
2017-10-19T02:49:26.247Z,17.40
2017-10-19T02:51:55.492Z,19.27
2017-10-19T02:54:24.030Z,18.60
2017-10-19T02:56:51.843Z,16.87
2017-10-19T02:59:20.316Z,19.20
2017-10-19T03:01:48.815Z,16.90
2017-10-19T03:04:17.483Z,17.47
2017-10-19T03:06:45.962Z,18.70
2017-10-19T03:09:14.427Z,17.57
2017-10-19T03:11:43.796Z,15.93
2017-10-19T03:14:12.260Z,16.80
2017-10-19T03:16:40.734Z,16.13
2017-10-19T03:19:09.216Z,17.90
2017-10-19T03:21:37.674Z,21.43
2017-10-19T03:24:06.147Z,17.43
2017-10-19T03:26:34.611Z,15.70
2017-10-19T03:29:03.860Z,16.90
2017-10-19T03:31:32.348Z,16.03
2017-10-19T03:34:00.821Z,15.47
2017-10-19T03:36:29.064Z,20.10
2017-10-19T03:38:58.436Z,19.87
2017-10-19T03:41:27.295Z,19.77
2017-10-19T03:43:55.814Z,20.33
2017-10-19T03:46:24.277Z,18.20
2017-10-19T03:48:52.375Z,16.63
2017-10-19T03:51:20.512Z,16.03
2017-10-19T03:53:49.036Z,15.70
2017-10-19T03:56:17.516Z,16.00
2017-10-19T03:58:45.982Z,16.37
2017-10-19T04:01:14.604Z,18.40
2017-10-19T04:03:43.883Z,18.47
2017-10-19T04:06:12.354Z,20.10
2017-10-19T04:08:40.834Z,22.90
2017-10-19T04:11:09.302Z,20.93
2017-10-19T04:13:37.823Z,21.30
2017-10-19T04:16:06.299Z,20.17
2017-10-19T04:18:34.771Z,14.87
2017-10-19T04:21:03.251Z,15.70
2017-10-19T04:23:31.816Z,15.43
2017-10-19T04:26:00.295Z,16.83
2017-10-19T04:28:28.775Z,15.17
2017-10-19T04:30:57.258Z,17.10
2017-10-19T04:33:25.722Z,25.03
2017-10-19T04:35:54.204Z,27.40
2017-10-19T04:38:22.672Z,25.00
2017-10-19T04:40:51.937Z,22.47
2017-10-19T04:43:20.490Z,21.80
2017-10-19T04:45:49.080Z,22.17
2017-10-19T04:48:17.554Z,19.40
2017-10-19T04:50:46.025Z,21.47
2017-10-19T04:53:15.310Z,18.07
2017-10-19T04:55:43.783Z,20.77
2017-10-19T04:58:13.021Z,17.97
2017-10-19T05:00:41.535Z,19.23
2017-10-19T05:03:10.140Z,19.63
2017-10-19T05:05:38.649Z,18.13
2017-10-19T05:08:06.775Z,16.30
2017-10-19T05:10:35.240Z,20.50
2017-10-19T05:13:03.727Z,21.07
2017-10-19T05:15:31.583Z,19.27
2017-10-19T05:18:00.219Z,19.93
2017-10-19T05:20:29.447Z,19.43
2017-10-19T05:22:57.935Z,21.83
2017-10-19T05:25:26.419Z,20.57
2017-10-19T05:27:54.916Z,18.43
2017-10-19T05:30:23.492Z,18.03
2017-10-19T05:32:52.001Z,18.60
2017-10-19T05:35:22.011Z,18.17
2017-10-19T05:37:50.491Z,18.10
2017-10-19T05:40:18.972Z,18.03
2017-10-19T05:42:47.606Z,17.90
2017-10-19T05:45:16.863Z,20.70
2017-10-19T05:47:45.335Z,15.47
2017-10-19T05:50:13.489Z,15.43
2017-10-19T05:52:41.956Z,18.90
2017-10-19T05:55:11.195Z,15.03
2017-10-19T05:57:39.781Z,20.10
2017-10-19T06:00:08.276Z,16.90
2017-10-19T06:02:36.752Z,21.00
2017-10-19T06:05:05.229Z,20.30
2017-10-19T06:07:33.728Z,17.00
2017-10-19T06:10:03.012Z,15.07
2017-10-19T06:12:31.480Z,14.90
2017-10-19T06:14:59.959Z,14.30
2017-10-19T06:17:34.492Z,17.00
2017-10-19T06:20:03.002Z,16.43
2017-10-19T06:22:31.523Z,14.53
2017-10-19T06:25:00.755Z,13.93
2017-10-19T06:27:29.237Z,21.90
2017-10-19T06:29:57.703Z,15.20
2017-10-19T06:32:26.191Z,12.97
2017-10-19T06:34:54.488Z,19.97
2017-10-19T06:37:22.953Z,16.50
2017-10-19T06:39:51.436Z,25.07
2017-10-19T06:42:19.908Z,18.00
2017-10-19T06:44:48.406Z,19.83
2017-10-19T06:47:16.875Z,21.20
2017-10-19T06:49:45.351Z,22.17
2017-10-19T06:52:13.816Z,18.53
2017-10-19T06:54:42.383Z,20.50
2017-10-19T06:57:10.672Z,17.37
2017-10-19T06:59:39.159Z,21.10
2017-10-19T07:02:07.622Z,19.50
2017-10-19T07:04:36.357Z,23.27
2017-10-19T07:07:04.845Z,23.67
2017-10-19T07:09:33.575Z,19.13
2017-10-19T07:12:02.069Z,17.73
2017-10-19T07:14:30.540Z,19.50
2017-10-19T07:16:59.039Z,22.33
2017-10-19T07:19:27.583Z,16.30
2017-10-19T07:21:56.063Z,26.87
2017-10-19T07:24:24.525Z,18.60
2017-10-19T07:26:53.021Z,19.77
2017-10-19T07:29:21.491Z,19.33
2017-10-19T07:31:49.971Z,28.77
2017-10-19T07:34:18.084Z,18.10
2017-10-19T07:36:46.644Z,18.67
2017-10-19T07:39:15.143Z,21.40
2017-10-19T07:41:43.615Z,19.63
2017-10-19T07:44:12.103Z,18.50
2017-10-19T07:46:40.576Z,20.10
2017-10-19T07:49:09.179Z,18.33
2017-10-19T07:51:37.649Z,21.93
2017-10-19T07:54:06.900Z,21.00
2017-10-19T07:56:35.184Z,25.53
2017-10-19T07:59:04.416Z,25.97
2017-10-19T08:01:32.903Z,23.20
2017-10-19T08:04:01.381Z,24.40
2017-10-19T08:06:29.861Z,21.93
2017-10-19T08:08:58.382Z,25.23
2017-10-19T08:11:26.935Z,20.67
2017-10-19T08:13:55.404Z,21.43
2017-10-19T08:16:23.798Z,26.97
2017-10-19T08:18:52.271Z,22.57
2017-10-19T08:21:20.784Z,25.10
2017-10-19T08:23:49.256Z,34.17
2017-10-19T08:26:17.719Z,21.47
2017-10-19T08:28:46.196Z,26.83
2017-10-19T08:31:14.656Z,32.47
2017-10-19T08:33:43.903Z,20.83
2017-10-19T08:36:12.374Z,24.03
2017-10-19T08:38:40.872Z,20.27
2017-10-19T08:41:09.355Z,23.20
2017-10-19T08:43:37.639Z,30.83
2017-10-19T08:46:06.144Z,22.50
2017-10-19T08:48:34.606Z,22.90
2017-10-19T08:51:03.087Z,29.43
2017-10-19T08:53:31.565Z,25.93
2017-10-19T08:56:01.059Z,28.80
2017-10-19T08:58:29.752Z,22.73
2017-10-19T09:00:58.361Z,25.00
2017-10-19T09:03:26.923Z,24.50
2017-10-19T09:05:55.408Z,31.23
2017-10-19T09:08:23.684Z,27.27
2017-10-19T09:10:52.222Z,24.67
2017-10-19T09:13:21.457Z,26.20
2017-10-19T09:15:49.932Z,22.57
2017-10-19T09:18:18.588Z,22.83
2017-10-19T09:20:47.849Z,29.60
2017-10-19T09:23:16.436Z,20.03
2017-10-19T09:25:44.732Z,34.30
2017-10-19T09:28:13.196Z,27.60
2017-10-19T09:30:41.678Z,28.37
2017-10-19T09:33:10.170Z,23.50
2017-10-19T09:35:38.650Z,21.40
2017-10-19T09:38:07.150Z,26.50
2017-10-19T09:40:35.619Z,26.63
2017-10-19T09:43:04.113Z,24.23
2017-10-19T09:45:32.619Z,21.37
2017-10-19T09:48:01.652Z,30.67
2017-10-19T09:50:30.142Z,21.47
2017-10-19T09:52:58.615Z,23.60
2017-10-19T09:55:27.091Z,23.93
2017-10-19T09:57:55.573Z,30.07
2017-10-19T10:00:24.048Z,23.73
2017-10-19T10:02:52.542Z,25.53
2017-10-19T10:05:21.008Z,22.80
2017-10-19T10:07:49.502Z,28.23
2017-10-19T10:10:17.975Z,27.80
2017-10-19T10:12:46.466Z,26.73
2017-10-19T10:15:14.942Z,27.00
2017-10-19T10:17:43.428Z,19.67
2017-10-19T10:20:11.922Z,12.70
2017-10-19T10:22:40.388Z,15.23
2017-10-19T10:25:08.859Z,14.23
2017-10-19T10:27:37.324Z,10.60
2017-10-19T10:30:05.547Z,9.93
2017-10-19T10:32:34.079Z,9.17
2017-10-19T10:35:02.552Z,10.77
2017-10-19T10:37:31.024Z,11.10
2017-10-19T10:39:59.500Z,9.80
2017-10-19T10:42:27.979Z,10.60
2017-10-19T10:44:56.657Z,10.17
2017-10-19T10:47:24.779Z,10.20
2017-10-19T10:49:54.019Z,9.60
2017-10-19T10:52:21.795Z,9.83
2017-10-19T10:54:50.381Z,10.03
2017-10-19T10:57:18.845Z,10.97
2017-10-19T10:59:47.442Z,11.30
2017-10-19T11:02:15.899Z,8.83
2017-10-19T11:04:44.356Z,9.70
2017-10-19T11:07:12.879Z,10.03
2017-10-19T11:09:41.144Z,9.27
2017-10-19T11:12:09.444Z,12.10
2017-10-19T11:14:37.895Z,8.50
2017-10-19T11:17:07.171Z,7.03
2017-10-19T11:19:36.655Z,9.50
2017-10-19T11:22:05.145Z,7.53
2017-10-19T11:24:33.624Z,9.83
2017-10-19T11:27:02.083Z,15.53
2017-10-19T11:29:30.596Z,9.17
2017-10-19T11:31:59.087Z,11.10
2017-10-19T11:34:27.567Z,7.30
2017-10-19T11:36:56.034Z,7.40
2017-10-19T11:39:24.693Z,7.33
2017-10-19T11:41:53.153Z,7.77
2017-10-19T11:44:21.640Z,9.43
2017-10-19T11:46:50.135Z,7.60
2017-10-19T11:49:18.623Z,7.60
2017-10-19T11:51:47.109Z,7.37
2017-10-19T11:54:15.581Z,6.33
2017-10-19T11:56:44.061Z,6.00
2017-10-19T11:59:12.563Z,7.13
2017-10-19T12:01:41.044Z,6.67
2017-10-19T12:04:09.521Z,7.40
2017-10-19T12:06:38.059Z,7.10
2017-10-19T12:09:07.308Z,6.47
2017-10-19T12:11:35.763Z,6.30
2017-10-19T12:14:04.238Z,8.33
2017-10-19T12:16:33.468Z,6.67
2017-10-19T12:19:01.943Z,7.97
2017-10-19T12:21:30.212Z,6.53
2017-10-19T12:23:58.679Z,6.60
2017-10-19T12:26:27.992Z,7.20
2017-10-19T12:28:56.469Z,7.40
2017-10-19T12:31:25.181Z,7.47
2017-10-19T12:33:53.676Z,8.00
2017-10-19T12:36:22.132Z,7.73
2017-10-19T12:38:50.644Z,7.30
2017-10-19T12:41:19.119Z,7.10
2017-10-19T12:43:47.592Z,8.40
2017-10-19T12:46:16.078Z,7.53
2017-10-19T12:48:44.573Z,7.10
2017-10-19T12:51:13.040Z,7.47
2017-10-19T12:53:41.571Z,13.03
2017-10-19T12:56:10.041Z,7.67
2017-10-19T12:58:38.507Z,6.83
2017-10-19T13:01:06.986Z,9.90
2017-10-19T13:03:35.459Z,7.40
2017-10-19T13:06:03.919Z,8.03
2017-10-19T13:08:32.398Z,8.20
2017-10-19T13:11:00.860Z,7.60
2017-10-19T13:13:30.110Z,6.90
2017-10-19T13:15:58.588Z,7.63
2017-10-19T13:18:27.147Z,10.00
2017-10-19T13:20:55.607Z,7.60
2017-10-19T13:23:24.860Z,7.33
2017-10-19T13:25:53.312Z,7.73
2017-10-19T13:28:21.919Z,7.63
2017-10-19T13:30:50.383Z,11.17
2017-10-19T13:33:18.875Z,10.90
2017-10-19T13:35:47.350Z,7.10
2017-10-19T13:38:15.821Z,11.00
2017-10-19T13:40:45.067Z,10.67
2017-10-19T13:43:13.564Z,7.83
2017-10-19T13:45:42.066Z,10.33
2017-10-19T13:48:10.535Z,10.50
2017-10-19T13:50:38.987Z,8.13
2017-10-19T13:53:07.267Z,9.90
2017-10-19T13:55:35.740Z,7.90
2017-10-19T13:58:04.361Z,7.73
2017-10-19T14:00:32.824Z,9.97
2017-10-19T14:03:01.306Z,8.30
2017-10-19T14:05:29.763Z,7.13
2017-10-19T14:07:58.257Z,7.53
2017-10-19T14:10:26.730Z,11.80
2017-10-19T14:12:55.226Z,9.00
2017-10-19T14:15:23.697Z,12.17
2017-10-19T14:17:52.304Z,8.27
2017-10-19T14:20:20.787Z,8.40
2017-10-19T14:22:49.376Z,11.23
2017-10-19T14:25:17.904Z,10.97
2017-10-19T14:27:47.128Z,9.73
2017-10-19T14:30:15.613Z,8.10
2017-10-19T14:32:44.070Z,8.87
2017-10-19T14:35:13.325Z,10.27
2017-10-19T14:37:41.608Z,9.20
2017-10-19T14:40:10.119Z,8.77
2017-10-19T14:42:39.371Z,10.00
2017-10-19T14:45:07.849Z,8.80
2017-10-19T14:47:36.328Z,9.03
2017-10-19T14:50:04.797Z,8.90
2017-10-19T14:52:33.396Z,10.67
2017-10-19T14:55:01.878Z,10.67
2017-10-19T14:57:30.368Z,10.47
2017-10-19T14:59:58.950Z,8.93
2017-10-19T15:02:27.418Z,8.87
2017-10-19T15:04:55.903Z,23.67
2017-10-19T15:07:24.372Z,11.80
2017-10-19T15:09:52.983Z,10.60
2017-10-19T15:12:21.523Z,14.23
2017-10-19T15:14:50.776Z,10.60
2017-10-19T15:17:19.295Z,19.73
2017-10-19T15:19:47.776Z,12.17
2017-10-19T15:22:16.268Z,9.37
2017-10-19T15:24:45.540Z,10.80
2017-10-19T15:27:14.020Z,10.97
2017-10-19T15:29:42.508Z,15.07
2017-10-19T15:32:10.975Z,8.23
2017-10-19T15:34:39.452Z,8.77
2017-10-19T15:37:07.917Z,13.40
2017-10-19T15:39:36.372Z,11.10
2017-10-19T15:42:05.622Z,13.17
2017-10-19T15:44:34.091Z,11.17
2017-10-19T15:47:02.588Z,16.70
2017-10-19T15:49:31.140Z,14.93
2017-10-19T15:51:59.620Z,12.53
2017-10-19T15:54:28.104Z,14.90
2017-10-19T15:56:56.622Z,12.87
2017-10-19T15:59:25.100Z,14.60
2017-10-19T16:01:53.563Z,10.10
2017-10-19T16:04:22.053Z,11.80
2017-10-19T16:06:50.511Z,14.33
2017-10-19T16:09:19.016Z,13.43
2017-10-19T16:11:47.500Z,12.17
2017-10-19T16:14:15.990Z,12.80
2017-10-19T16:16:44.465Z,12.97
2017-10-19T16:19:12.967Z,13.53
2017-10-19T16:21:41.434Z,21.13
2017-10-19T16:24:09.893Z,14.77
2017-10-19T16:26:38.367Z,12.50
2017-10-19T16:29:07.634Z,12.40
2017-10-19T16:31:36.104Z,16.63
2017-10-19T16:34:04.594Z,13.50
2017-10-19T16:36:33.050Z,14.00
2017-10-19T16:39:01.573Z,11.90
2017-10-19T16:41:30.072Z,15.40
2017-10-19T16:43:59.338Z,18.43
2017-10-19T16:46:27.802Z,11.60
2017-10-19T16:48:56.285Z,18.93
2017-10-19T16:51:24.779Z,19.20
2017-10-19T16:53:53.261Z,16.30
2017-10-19T16:56:21.733Z,22.60
2017-10-19T16:58:50.639Z,14.83
2017-10-19T17:01:19.136Z,16.17
2017-10-19T17:03:48.387Z,14.47
2017-10-19T17:06:16.859Z,17.10
2017-10-19T17:08:45.759Z,19.53
2017-10-19T17:11:14.229Z,21.53
2017-10-19T17:13:42.725Z,13.83
2017-10-19T17:16:11.639Z,17.47
2017-10-19T17:18:40.599Z,19.73
2017-10-19T17:21:09.932Z,17.93
2017-10-19T17:23:38.552Z,15.73
2017-10-19T17:26:08.931Z,14.60
2017-10-19T17:28:37.596Z,14.83
2017-10-19T17:31:06.144Z,12.50
2017-10-19T17:33:34.732Z,13.07
2017-10-19T17:36:03.290Z,14.50
2017-10-19T17:38:31.845Z,14.90
2017-10-19T17:41:00.373Z,21.43
2017-10-19T17:43:28.941Z,11.87
2017-10-19T17:45:57.568Z,12.70
2017-10-19T17:48:26.579Z,14.27
2017-10-19T17:50:55.201Z,11.77
2017-10-19T17:53:23.820Z,11.80
2017-10-19T17:55:53.238Z,13.37
2017-10-19T17:58:22.643Z,13.13
2017-10-19T18:00:50.943Z,12.50
2017-10-19T18:03:19.603Z,16.40
2017-10-19T18:05:47.911Z,17.83
2017-10-19T18:08:16.156Z,13.47
2017-10-19T18:10:45.501Z,19.90
2017-10-19T18:13:14.048Z,15.53
2017-10-19T18:15:43.343Z,16.30
2017-10-19T18:18:12.181Z,20.63
2017-10-19T18:20:40.743Z,18.77
2017-10-19T18:23:09.680Z,30.77
2017-10-19T18:25:38.594Z,19.83
2017-10-19T18:28:07.961Z,19.23
2017-10-19T18:30:36.918Z,26.10
2017-10-19T18:33:05.867Z,17.30
2017-10-19T18:35:34.933Z,20.50
2017-10-19T18:38:03.558Z,20.90
2017-10-19T18:40:33.080Z,20.43
2017-10-19T18:43:01.618Z,22.70
2017-10-19T18:45:30.710Z,17.33
2017-10-19T18:47:59.475Z,15.60
2017-10-19T18:50:29.037Z,15.37
2017-10-19T18:52:58.199Z,14.63
2017-10-19T18:55:26.973Z,16.27
2017-10-19T18:57:55.940Z,19.93
2017-10-19T19:00:25.162Z,19.33
2017-10-19T19:02:53.962Z,14.77
2017-10-19T19:05:22.758Z,16.57
2017-10-19T19:07:51.922Z,14.77
2017-10-19T19:10:21.081Z,21.50
2017-10-19T19:12:49.879Z,14.47
2017-10-19T19:15:19.048Z,16.07
2017-10-19T19:17:47.826Z,14.30
2017-10-19T19:20:16.575Z,16.87
2017-10-19T19:22:45.776Z,14.83
2017-10-19T19:25:14.963Z,20.20
2017-10-19T19:27:43.950Z,16.87
2017-10-19T19:30:13.508Z,16.23
2017-10-19T19:32:43.035Z,15.10
2017-10-19T19:35:11.812Z,15.30
2017-10-19T19:37:41.206Z,15.90
2017-10-19T19:40:09.957Z,13.23
2017-10-19T19:42:39.241Z,14.90
2017-10-19T19:45:08.797Z,19.10
2017-10-19T19:47:37.990Z,21.17
2017-10-19T19:50:06.768Z,14.87
2017-10-19T19:52:35.559Z,14.23
2017-10-19T19:55:05.146Z,21.17
2017-10-19T19:57:34.716Z,14.63
2017-10-19T20:00:03.547Z,15.00
2017-10-19T20:02:32.722Z,18.00
2017-10-19T20:05:01.986Z,15.57
2017-10-19T20:07:30.767Z,23.30
2017-10-19T20:09:59.930Z,14.60
2017-10-19T20:12:29.629Z,16.80
2017-10-19T20:14:58.780Z,15.40
2017-10-19T20:17:28.317Z,13.47
2017-10-19T20:19:57.074Z,14.33
2017-10-19T20:22:25.812Z,12.50
2017-10-19T20:24:54.893Z,13.50
2017-10-19T20:27:23.432Z,15.33
2017-10-19T20:29:52.703Z,13.50
2017-10-19T20:32:22.193Z,13.63
2017-10-19T20:34:50.675Z,13.77
2017-10-19T20:37:19.700Z,13.50
2017-10-19T20:39:48.585Z,12.67
2017-10-19T20:42:17.446Z,16.60
2017-10-19T20:44:46.701Z,12.67
2017-10-19T20:47:15.604Z,15.43
2017-10-19T20:49:44.493Z,13.73
2017-10-19T20:52:13.773Z,16.10
2017-10-19T20:54:43.008Z,15.17
2017-10-19T20:57:11.914Z,19.67
2017-10-19T20:59:40.380Z,14.40
2017-10-19T21:02:09.643Z,13.77
2017-10-19T21:04:38.872Z,12.67
2017-10-19T21:07:07.764Z,13.63
2017-10-19T21:09:36.637Z,12.97
2017-10-19T21:12:05.915Z,12.97
2017-10-19T21:14:34.780Z,16.20
2017-10-19T21:17:03.680Z,16.60
2017-10-19T21:19:32.535Z,14.80
2017-10-19T21:22:01.464Z,17.13
2017-10-19T21:24:30.357Z,14.10
2017-10-19T21:26:59.248Z,17.60
2017-10-19T21:29:28.295Z,15.23
2017-10-19T21:31:57.166Z,15.97
2017-10-19T21:34:26.416Z,24.03
2017-10-19T21:36:55.318Z,19.90
2017-10-19T21:39:24.188Z,16.37
2017-10-19T21:41:53.061Z,17.50
2017-10-19T21:44:22.303Z,14.57
2017-10-19T21:46:51.308Z,16.70
2017-10-19T21:49:20.250Z,16.60
2017-10-19T21:51:49.139Z,17.13
2017-10-19T21:54:18.074Z,15.80
2017-10-19T21:56:47.002Z,14.70
2017-10-19T21:59:15.496Z,15.83
2017-10-19T22:01:43.636Z,17.50
2017-10-19T22:04:12.122Z,14.40
2017-10-19T22:06:40.585Z,16.87
2017-10-19T22:09:09.063Z,16.30
2017-10-19T22:11:37.923Z,18.17
2017-10-19T22:14:06.404Z,16.17
2017-10-19T22:16:34.899Z,17.00
2017-10-19T22:19:04.170Z,15.40
2017-10-19T22:21:32.666Z,16.33
2017-10-19T22:24:01.903Z,16.00
2017-10-19T22:26:30.429Z,15.30
2017-10-19T22:28:58.561Z,19.27
2017-10-19T22:31:27.139Z,16.70
2017-10-19T22:33:55.692Z,17.20
2017-10-19T22:36:24.159Z,15.70
2017-10-19T22:38:52.627Z,19.00
2017-10-19T22:41:21.123Z,15.50
2017-10-19T22:43:49.588Z,15.83
2017-10-19T22:46:18.095Z,18.20
2017-10-19T22:48:46.648Z,20.23
2017-10-19T22:51:15.104Z,15.60
2017-10-19T22:53:43.584Z,19.67
2017-10-19T22:56:12.070Z,13.27
2017-10-19T22:58:40.555Z,15.67
2017-10-19T23:01:09.012Z,14.23
2017-10-19T23:03:38.263Z,16.97
2017-10-19T23:06:06.723Z,16.60
2017-10-19T23:08:35.211Z,13.83
2017-10-19T23:11:03.751Z,14.33
2017-10-19T23:13:32.336Z,14.30
2017-10-19T23:16:02.324Z,14.00
2017-10-19T23:18:30.806Z,16.07
2017-10-19T23:20:59.312Z,16.53
2017-10-19T23:23:29.292Z,16.93
2017-10-19T23:25:57.783Z,17.07
2017-10-19T23:28:25.900Z,17.10
2017-10-19T23:30:55.149Z,15.70
2017-10-19T23:33:23.622Z,14.90
2017-10-19T23:35:52.166Z,14.27
2017-10-19T23:38:21.511Z,15.57
2017-10-19T23:40:49.992Z,14.43
2017-10-19T23:43:18.476Z,16.70
2017-10-19T23:45:46.935Z,14.70
2017-10-19T23:48:16.319Z,15.47
2017-10-19T23:50:44.775Z,17.10
2017-10-19T23:53:13.252Z,14.73
2017-10-19T23:55:41.719Z,13.67
2017-10-19T23:58:10.353Z,14.50
